Sun Prairie, WI (53590)

6:29 PM CST on February 12, 2016 (GMT -0600)
Northside School | | Change Station
CLOSE
Current Station
Personal Weather Station
Location: Sun Prairie, WI
Elevation: 1007 ft
Nearby Weather Stations
Active Advisory: Wind Chill Advisory

Elev 1007 ft 43.19 °N, 89.22 °W | Updated 9 seconds ago

Clear
Clear
8.9 °F
Feels Like 1 °F
N
4.6
Wind Variable Wind from NNE
Gusts 4.6 mph

Today
High -- | Low -- °F
--% Chance of Precip.
Yesterday
High -- | Low -- °F
Precip. -- in
Pressure 30.39 in
Visibility 10.0 miles
Clouds Clear
Windchill 1 °F
Dew Point -5 °F
Humidity 53%
Rainfall 0.00 in
Snow Depth Not available.
6:59 AM 5:23 PM
Waxing Crescent, 25% visible
METAR KMSN 122353Z 32010G18KT 10SM CLR M12/M22 A3033 RMK AO2 SLP291 4/003 T11221217 11078 21122 53041
Pressure 30.39 in
Visibility 10.0 miles
Clouds Clear
Windchill 1 °F
Dew Point -5 °F
Humidity 53%
Rainfall 0.00 in
Snow Depth Not available.
6:59 AM 5:23 PM
Waxing Crescent, 25% visible
METAR KMSN 122353Z 32010G18KT 10SM CLR M12/M22 A3033 RMK AO2 SLP291 4/003 T11221217 11078 21122 53041

10-Day Weather Forecast

Almanac

Astronomy

Feb. 12, 2016 Rise Set
Actual Time
Civil Twilight
Nautical Twilight
Astronomical Twilight
Moon
Length of Visible Light
Length of Day
Tomorrow will be .
, % of the Moon is Illuminated

Today's Extremes

State Highs State Lows

Community

WunderPhotos

Upload Photos

1,892,439 photos uploaded!

WunderBlog® & News

Nearby

Air Quality

  Air Quality AQ Index Pollutant
Not available.

Snow Depth

Station Depth Elevation

Earthquake Activity

City Distance Mag. Time & Date
Minimum magnitude displayed is 2.5.

Coastal Water Temperatures

Place Temperature

Stations

Nearby Weather Stations

Station Location Temp. Windchill Dew Point Humidity Wind Precip. Elev Updated Type
                   

Watches & Warnings

Wind Chill Advisory
Issued: 3:05 PM CST Feb. 12, 2016 – National Weather Service

... Wind Chill Advisory remains in effect from midnight tonight to
9 am CST Saturday...

A Wind Chill Advisory remains in effect from midnight tonight to
9 am CST Saturday.

* Tonight through early Saturday.

* Wind chill values of 20 to 25 degrees below zero are expected.

Precautionary/preparedness actions...

A Wind Chill Advisory means that very cold air and strong winds
will combine to generate low wind chills. This will result in
frost bite and lead to hypothermia if precautions are not taken.
If you must venture outdoors... make sure you wear a hat and
gloves.